Time;durP1;ratioP1;P1;durP2;ratioP2;P2;SDS_P1;SDS_P2;PMS_P1;PMS_P2;Temp;Humidity;BMP_temperature;BMP_pressure;BME280_temperature;BME280_humidity;BME280_pressure;Samples;Min_cycle;Max_cycle;Signal;HPM_P1;HPM_P2
2023/04/29 00:00:07;;;;;;;12.32;8.00;;;;;;;8.50;43.29;93887.31;4979962;28;20922;-78
2023/04/29 00:02:33;;;;;;;10.65;7.65;;;;;;;8.37;43.67;93863.44;4988936;28;20056;-80
2023/04/29 00:04:58;;;;;;;13.40;8.27;;;;;;;8.38;43.73;93872.97;4984561;28;20034;-78
2023/04/29 00:07:23;;;;;;;14.73;7.78;;;;;;;8.41;43.73;93891.72;4985090;28;20089;-78
2023/04/29 00:09:49;;;;;;;10.38;6.65;;;;;;;8.36;43.50;93875.94;4981124;28;21038;-78
2023/04/29 00:12:14;;;;;;;11.55;5.90;;;;;;;8.30;43.73;93877.13;4981097;28;20037;-78
2023/04/29 00:14:42;;;;;;;11.20;6.50;;;;;;;8.18;43.85;93878.69;4978432;28;20395;-78
2023/04/29 00:17:07;;;;;;;13.13;6.75;;;;;;;8.29;43.85;93901.25;4977962;28;20125;-78
2023/04/29 00:19:33;;;;;;;19.20;7.07;;;;;;;8.12;43.79;93875.34;4981568;28;20034;-77
2023/04/29 00:21:58;;;;;;;17.23;9.50;;;;;;;8.22;43.52;93896.34;4979389;28;20053;-77
2023/04/29 00:24:24;;;;;;;13.38;9.77;;;;;;;8.25;44.14;93898.44;4979368;28;20026;-77
2023/04/29 00:26:49;;;;;;;16.25;8.25;;;;;;;8.13;44.07;93898.13;4980265;28;20647;-78
2023/04/29 00:29:14;;;;;;;19.00;8.52;;;;;;;8.15;44.39;93911.88;4978409;28;20096;-77
2023/04/29 00:31:40;;;;;;;13.90;7.70;;;;;;;8.10;43.98;93898.72;4976712;28;20093;-81
2023/04/29 00:34:05;;;;;;;12.73;6.85;;;;;;;8.19;43.81;93917.34;4977910;28;20054;-80
2023/04/29 00:36:31;;;;;;;11.35;6.30;;;;;;;8.09;44.01;93907.75;4979061;28;20030;-79
2023/04/29 00:38:57;;;;;;;13.65;7.32;;;;;;;7.92;44.22;93887.16;4980877;28;20113;-79
2023/04/29 00:41:23;;;;;;;10.13;6.35;;;;;;;8.09;44.05;93905.88;4980268;28;20030;-80
2023/04/29 00:43:48;;;;;;;9.68;6.40;;;;;;;7.91;44.01;93879.50;4981703;28;20062;-80
2023/04/29 00:46:17;;;;;;;9.32;6.03;;;;;;;8.07;43.63;93900.09;4978578;28;20580;-79
2023/04/29 00:48:42;;;;;;;14.05;6.88;;;;;;;8.01;43.55;93884.59;4978855;28;20045;-79
2023/04/29 00:51:08;;;;;;;11.30;6.95;;;;;;;7.90;44.01;93888.53;4979281;28;20022;-80
2023/04/29 00:53:35;;;;;;;10.07;6.63;;;;;;;7.87;43.83;93883.81;4978725;28;20034;-79
2023/04/29 00:56:01;;;;;;;13.27;6.80;;;;;;;7.83;44.01;93888.09;4980977;28;20030;-80
2023/04/29 00:58:32;;;;;;;16.00;7.53;;;;;;;7.66;44.13;93867.50;4976045;28;20515;-79
2023/04/29 01:01:02;;;;;;;19.05;7.15;;;;;;;7.89;44.17;93879.00;4983646;28;20054;-79
2023/04/29 01:03:29;;;;;;;20.27;7.72;;;;;;;7.75;44.01;93871.06;4986895;28;20130;-79
2023/04/29 01:06:36;;;;;;;18.50;7.53;;;;;;;7.79;44.44;93873.91;4982728;28;20026;-79
2023/04/29 01:09:30;;;;;;;18.15;7.60;;;;;;;7.73;44.46;93868.69;4972650;28;20513;-79
2023/04/29 01:12:53;;;;;;;14.63;6.20;;;;;;;7.65;44.92;93861.41;4968086;28;20146;-79
2023/04/29 01:15:29;;;;;;;11.70;6.28;;;;;;;7.57;44.59;93843.56;4939791;28;20522;-80
2023/04/29 01:17:59;;;;;;;14.48;6.53;;;;;;;7.58;44.98;93842.47;4953026;28;20022;-79
2023/04/29 01:20:25;;;;;;;14.13;6.93;;;;;;;7.68;44.65;93860.03;4972749;28;20819;-79
2023/04/29 01:22:50;;;;;;;15.07;5.40;;;;;;;7.68;44.58;93858.16;4977531;28;20653;-79
2023/04/29 01:25:16;;;;;;;11.43;4.90;;;;;;;7.64;44.37;93845.81;4978449;28;20314;-79
2023/04/29 01:28:01;;;;;;;10.40;4.53;;;;;;;7.63;44.14;93831.78;4976334;28;20037;-79
2023/04/29 01:30:45;;;;;;;13.98;4.65;;;;;;;7.75;44.06;93862.31;4979314;28;20538;-79
2023/04/29 01:33:48;;;;;;;13.20;6.28;;;;;;;7.70;44.21;93861.31;4980964;28;20022;-79
2023/04/29 01:36:48;;;;;;;17.85;6.65;;;;;;;7.73;44.33;93860.75;4977801;28;20057;-80
2023/04/29 01:39:44;;;;;;;9.18;6.03;;;;;;;7.69;44.32;93865.03;4979781;28;20065;-80
2023/04/29 01:42:20;;;;;;;12.82;4.93;;;;;;;7.60;44.06;93848.28;4980747;28;20306;-79
2023/04/29 01:44:46;;;;;;;7.82;5.35;;;;;;;7.54;44.37;93841.50;4976934;28;20064;-79
2023/04/29 01:47:13;;;;;;;9.82;4.88;;;;;;;7.60;44.18;93850.91;4977483;28;20038;-78
2023/04/29 01:49:38;;;;;;;16.02;4.97;;;;;;;7.55;44.29;93851.00;4978007;28;20113;-79
2023/04/29 01:52:04;;;;;;;11.02;4.60;;;;;;;7.39;44.29;93827.75;4980703;28;20103;-79
2023/04/29 01:54:30;;;;;;;32.15;5.93;;;;;;;7.44;44.55;93828.44;4977938;28;20138;-79
2023/04/29 01:56:57;;;;;;;11.98;5.00;;;;;;;7.57;44.65;93854.16;4974929;28;20034;-79
2023/04/29 01:59:24;;;;;;;14.75;6.63;;;;;;;7.57;44.41;93848.88;4975895;28;20861;-77
2023/04/29 02:01:50;;;;;;;13.65;6.18;;;;;;;7.59;44.51;93848.56;4973070;28;20042;-79
2023/04/29 02:04:15;;;;;;;10.77;5.70;;;;;;;7.44;44.77;93838.25;4976716;28;20031;-76
2023/04/29 02:06:41;;;;;;;9.80;5.38;;;;;;;7.56;44.94;93855.22;4979717;28;20026;-80
2023/04/29 02:09:07;;;;;;;9.38;5.60;;;;;;;7.57;44.60;93858.66;4985737;28;20054;-78
2023/04/29 02:11:32;;;;;;;12.57;5.88;;;;;;;7.40;44.83;93831.97;4980082;28;20261;-79
2023/04/29 02:13:57;;;;;;;9.80;5.60;;;;;;;7.41;45.14;93860.78;4978889;28;20104;-79
2023/04/29 02:16:23;;;;;;;7.88;4.82;;;;;;;7.21;45.51;93845.25;4982849;28;20473;-79
2023/04/29 02:18:49;;;;;;;8.80;6.25;;;;;;;7.22;45.60;93849.50;4981041;28;20037;-79
2023/04/29 02:21:16;;;;;;;11.80;5.72;;;;;;;7.10;45.70;93839.34;4973324;28;20038;-80
2023/04/29 02:23:41;;;;;;;6.50;5.43;;;;;;;7.12;45.72;93842.50;4979851;28;20034;-76
2023/04/29 02:26:08;;;;;;;9.45;6.30;;;;;;;7.12;46.24;93849.66;4980665;28;20070;-79
2023/04/29 02:28:35;;;;;;;10.77;7.20;;;;;;;7.15;45.98;93857.00;4982827;28;20897;-78
2023/04/29 02:31:00;;;;;;;5.60;4.50;;;;;;;7.03;46.29;93854.03;4983210;28;20053;-80
2023/04/29 02:33:26;;;;;;;6.53;4.47;;;;;;;7.10;46.22;93849.16;4982645;28;20503;-80
2023/04/29 02:35:51;;;;;;;7.07;5.50;;;;;;;7.07;46.46;93853.16;4980482;28;20034;-77
2023/04/29 02:38:17;;;;;;;8.45;5.75;;;;;;;7.01;46.32;93853.53;4982919;28;20048;-74
2023/04/29 02:40:44;;;;;;;8.55;5.47;;;;;;;6.95;46.42;93847.53;4983953;28;20074;-78
2023/04/29 02:43:10;;;;;;;11.23;5.75;;;;;;;6.87;46.73;93832.34;4981008;28;20718;-77
2023/04/29 02:45:37;;;;;;;9.88;5.90;;;;;;;6.95;46.63;93850.19;4985262;28;20101;-78
2023/04/29 02:48:03;;;;;;;7.28;5.43;;;;;;;6.92;46.70;93852.63;4984272;28;20041;-78
2023/04/29 02:50:28;;;;;;;9.35;6.00;;;;;;;6.90;46.34;93846.84;4983646;28;20050;-79
2023/04/29 02:52:54;;;;;;;10.07;6.38;;;;;;;6.84;46.22;93841.66;4983149;28;20331;-79
2023/04/29 02:55:20;;;;;;;9.40;6.40;;;;;;;7.05;46.25;93867.75;4980981;28;20144;-78
2023/04/29 02:57:46;;;;;;;9.50;6.13;;;;;;;6.98;46.21;93864.69;4964800;28;20019;-76
2023/04/29 03:00:12;;;;;;;12.52;6.80;;;;;;;6.85;46.57;93861.69;4964983;28;21101;-78
2023/04/29 03:02:37;;;;;;;13.05;7.72;;;;;;;6.78;46.80;93863.94;4962891;28;20054;-79
2023/04/29 03:05:04;;;;;;;9.90;7.88;;;;;;;6.76;46.52;93860.00;4964649;28;20040;-78
2023/04/29 03:07:30;;;;;;;16.02;7.85;;;;;;;6.97;46.56;93871.84;4961926;28;20031;-78
2023/04/29 03:09:55;;;;;;;12.18;7.47;;;;;;;6.93;46.71;93875.34;4966553;28;20025;-79
2023/04/29 03:12:21;;;;;;;12.93;8.80;;;;;;;6.73;47.00;93852.66;4968547;28;20397;-76
2023/04/29 03:14:46;;;;;;;9.15;7.88;;;;;;;6.75;47.06;93843.34;4969661;28;20222;-78
2023/04/29 03:17:13;;;;;;;17.15;7.60;;;;;;;6.93;46.87;93885.94;4969721;28;20038;-77
2023/04/29 03:19:38;;;;;;;10.90;7.20;;;;;;;6.81;46.89;93865.22;4961792;28;20034;-79
2023/04/29 03:22:04;;;;;;;13.93;7.93;;;;;;;6.82;46.70;93870.22;4964947;28;20033;-77
2023/04/29 03:24:29;;;;;;;11.88;7.57;;;;;;;6.74;47.01;93852.38;4976631;28;20134;-79
2023/04/29 03:26:55;;;;;;;11.93;7.80;;;;;;;6.81;47.18;93887.16;4977795;28;20045;-78
2023/04/29 03:29:20;;;;;;;12.48;7.93;;;;;;;6.75;47.13;93890.94;4983890;28;20034;-78
2023/04/29 03:31:46;;;;;;;12.82;8.20;;;;;;;6.68;46.96;93893.16;4984802;28;20061;-79
2023/04/29 03:34:13;;;;;;;13.70;8.55;;;;;;;6.72;47.85;93903.94;4980311;28;20030;-80
2023/04/29 03:36:38;;;;;;;12.90;8.20;;;;;;;6.65;47.98;93903.53;4987338;28;20542;-79
2023/04/29 03:39:04;;;;;;;11.90;8.05;;;;;;;6.68;48.15;93916.16;4995690;28;20466;-80
2023/04/29 03:41:29;;;;;;;14.23;9.00;;;;;;;6.45;48.00;93869.47;4980911;28;20038;-79
2023/04/29 03:43:59;;;;;;;12.75;8.75;;;;;;;6.67;48.32;93910.09;4981091;28;20095;-78
2023/04/29 03:46:27;;;;;;;15.63;10.13;;;;;;;6.66;48.50;93907.72;4982118;28;20022;-78
2023/04/29 03:48:54;;;;;;;13.80;9.18;;;;;;;6.65;48.68;93901.66;4981969;28;20136;-79
2023/04/29 03:51:21;;;;;;;8.38;6.20;;;;;;;6.40;48.76;93873.75;4983703;28;20030;-79
2023/04/29 03:53:47;;;;;;;10.77;7.25;;;;;;;6.58;48.34;93885.38;4979616;28;20417;-78
2023/04/29 03:56:13;;;;;;;8.48;7.07;;;;;;;6.53;48.27;93876.72;4973488;28;20038;-78
2023/04/29 03:58:38;;;;;;;9.15;6.07;;;;;;;6.51;48.66;93873.56;4980283;28;20065;-78
2023/04/29 04:01:03;;;;;;;10.82;7.60;;;;;;;6.64;48.91;93894.03;4981880;28;20034;-79
2023/04/29 04:03:29;;;;;;;9.50;8.23;;;;;;;6.72;48.84;93910.00;4981251;28;20034;-79
2023/04/29 04:05:55;;;;;;;14.68;9.27;;;;;;;6.73;49.01;93898.38;4980822;28;20045;-78
2023/04/29 04:08:20;;;;;;;14.65;9.73;;;;;;;6.69;48.67;93884.16;4979793;28;20512;-79
2023/04/29 04:10:46;;;;;;;15.38;9.10;;;;;;;6.77;48.64;93883.50;4976826;28;20049;-78
2023/04/29 04:13:11;;;;;;;11.25;8.95;;;;;;;7.01;48.26;93903.78;4982175;28;21359;-79
2023/04/29 04:15:39;;;;;;;16.17;9.68;;;;;;;6.74;48.40;93859.53;4987093;28;20101;-78
2023/04/29 04:18:04;;;;;;;11.15;9.75;;;;;;;7.13;48.68;93907.56;4987447;28;20049;-78
2023/04/29 04:20:30;;;;;;;13.35;9.85;;;;;;;7.14;49.01;93889.84;4977865;28;20955;-79
2023/04/29 04:22:55;;;;;;;12.38;9.43;;;;;;;7.29;48.81;93885.06;4981301;28;20046;-79
2023/04/29 04:25:21;;;;;;;13.65;9.10;;;;;;;7.27;48.13;93889.88;4979134;28;20026;-79
2023/04/29 04:27:46;;;;;;;14.18;8.95;;;;;;;7.41;48.22;93910.28;4979764;28;20394;-77
2023/04/29 04:30:12;;;;;;;15.60;9.70;;;;;;;7.35;48.36;93895.56;4979075;28;20049;-77
2023/04/29 04:32:38;;;;;;;16.30;10.07;;;;;;;7.24;48.11;93871.13;4992957;28;20148;-79
2023/04/29 04:35:05;;;;;;;18.10;9.60;;;;;;;7.39;48.32;93888.59;4978922;28;20045;-80
2023/04/29 04:37:30;;;;;;;13.63;9.60;;;;;;;7.37;48.54;93886.28;4979863;28;20449;-79
2023/04/29 04:39:56;;;;;;;17.48;10.20;;;;;;;7.52;48.24;93893.16;4978968;28;20030;-78
2023/04/29 04:42:22;;;;;;;16.38;9.63;;;;;;;7.47;47.94;93906.47;4981408;28;20871;-78
2023/04/29 04:44:47;;;;;;;21.90;10.90;;;;;;;7.57;47.67;93909.75;4977212;28;20564;-79
2023/04/29 04:47:12;;;;;;;21.73;10.93;;;;;;;7.60;47.68;93909.16;4980413;28;20034;-78
2023/04/29 04:49:38;;;;;;;19.50;10.73;;;;;;;7.64;47.57;93901.41;4986265;28;20033;-78
2023/04/29 04:52:04;;;;;;;24.92;11.25;;;;;;;7.73;47.30;93904.22;4980962;28;20030;-78
2023/04/29 04:54:29;;;;;;;14.95;9.90;;;;;;;7.87;46.85;93897.06;4981499;28;20088;-78
2023/04/29 04:56:55;;;;;;;19.80;10.75;;;;;;;8.01;47.22;93905.78;4977250;28;20459;-78
2023/04/29 04:59:20;;;;;;;15.65;10.05;;;;;;;8.03;47.01;93901.75;4981586;28;20143;-79
2023/04/29 05:01:45;;;;;;;15.35;11.95;;;;;;;7.54;48.08;93891.78;4977781;28;20053;-77
2023/04/29 05:04:11;;;;;;;20.80;13.23;;;;;;;7.61;48.17;93881.59;4979515;28;20022;-80
2023/04/29 05:06:36;;;;;;;23.42;12.43;;;;;;;7.50;47.78;93858.25;4982080;28;20026;-79
2023/04/29 05:09:02;;;;;;;17.95;11.15;;;;;;;6.77;49.48;93890.66;4980653;28;20132;-78
2023/04/29 05:11:27;;;;;;;19.00;12.07;;;;;;;7.10;49.79;93886.97;4981476;28;20037;-80
2023/04/29 05:13:53;;;;;;;24.42;11.50;;;;;;;6.69;50.47;93886.03;4976318;28;20050;-79
2023/04/29 05:16:18;;;;;;;24.55;12.35;;;;;;;6.46;51.27;93863.88;4980393;28;20132;-80
2023/04/29 05:18:45;;;;;;;19.35;11.32;;;;;;;6.84;50.65;93870.72;4983427;28;20064;-79
2023/04/29 05:21:11;;;;;;;16.50;11.80;;;;;;;6.84;50.28;93869.94;4983660;28;20121;-79
2023/04/29 05:23:37;;;;;;;16.92;11.73;;;;;;;6.95;50.57;93873.97;4977254;28;20038;-77
2023/04/29 05:26:03;;;;;;;21.02;12.75;;;;;;;7.09;49.94;93868.75;4993459;28;20046;-79
2023/04/29 05:28:28;;;;;;;17.60;12.15;;;;;;;7.23;49.42;93859.78;4979764;28;20053;-78
2023/04/29 05:30:54;;;;;;;23.40;13.05;;;;;;;7.33;49.23;93856.19;4979140;28;20033;-79
2023/04/29 05:33:19;;;;;;;21.42;13.63;;;;;;;7.38;49.61;93866.69;4979202;28;20050;-79
2023/04/29 05:35:45;;;;;;;17.10;11.93;;;;;;;6.92;50.66;93845.47;4972851;28;20052;-78
2023/04/29 05:38:10;;;;;;;19.95;12.05;;;;;;;6.98;50.36;93856.75;4976428;28;20038;-78
2023/04/29 05:40:37;;;;;;;17.02;10.57;;;;;;;7.57;49.37;93870.03;4976338;28;20576;-79
2023/04/29 05:43:02;;;;;;;23.20;11.93;;;;;;;7.73;49.18;93861.84;4986523;28;20030;-79
2023/04/29 05:45:27;;;;;;;19.55;11.70;;;;;;;7.81;48.18;93856.66;4969210;28;20404;-78
2023/04/29 05:47:54;;;;;;;18.35;11.88;;;;;;;7.88;47.79;93848.28;4978659;28;20086;-77
2023/04/29 05:50:19;;;;;;;16.48;12.10;;;;;;;8.31;47.91;93878.69;4979244;28;20035;-79
2023/04/29 05:52:45;;;;;;;16.85;12.32;;;;;;;8.39;47.25;93870.03;4978848;28;20034;-79
2023/04/29 05:55:10;;;;;;;21.13;12.05;;;;;;;8.18;47.46;93826.50;4994617;28;20476;-79
2023/04/29 05:57:36;;;;;;;18.60;11.98;;;;;;;8.31;46.88;93857.50;4977504;28;20998;-77
2023/04/29 06:00:03;;;;;;;17.10;11.68;;;;;;;8.64;46.04;93879.31;4979836;28;21983;-80
2023/04/29 06:02:28;;;;;;;12.95;11.02;;;;;;;8.68;46.18;93877.63;4980611;28;20096;-80
2023/04/29 06:04:54;;;;;;;17.80;11.77;;;;;;;8.69;46.30;93859.84;4982655;28;20049;-79
2023/04/29 06:07:20;;;;;;;16.52;11.88;;;;;;;8.77;45.58;93881.13;4983389;28;20707;-78
2023/04/29 06:09:45;;;;;;;17.65;10.73;;;;;;;8.50;45.81;93883.88;4977177;28;20033;-79
2023/04/29 06:12:11;;;;;;;14.43;10.07;;;;;;;8.75;45.32;93874.56;4969575;28;20046;-79
2023/04/29 06:14:36;;;;;;;14.32;9.45;;;;;;;8.98;44.88;93876.16;4974334;28;20057;-80
2023/04/29 06:17:02;;;;;;;12.63;8.40;;;;;;;9.25;44.20;93864.66;4972202;28;20080;-79
2023/04/29 06:19:28;;;;;;;15.75;9.25;;;;;;;9.48;43.01;93868.09;4986110;28;20081;-76
2023/04/29 06:21:53;;;;;;;11.60;9.25;;;;;;;9.42;43.38;93859.47;4977892;28;20578;-79
2023/04/29 06:24:19;;;;;;;13.35;9.88;;;;;;;9.61;43.42;93867.22;4979371;28;20038;-79
2023/04/29 06:26:44;;;;;;;18.50;9.80;;;;;;;9.39;42.50;93855.53;4978674;28;20061;-78
2023/04/29 06:29:10;;;;;;;14.07;9.10;;;;;;;9.63;42.46;93870.34;4977450;28;20068;-77
2023/04/29 06:31:35;;;;;;;13.48;10.00;;;;;;;9.73;43.00;93864.78;4973599;28;20447;-79
2023/04/29 06:34:01;;;;;;;15.38;8.00;;;;;;;9.64;42.17;93878.00;4973656;28;20038;-77
2023/04/29 06:36:27;;;;;;;15.27;9.18;;;;;;;9.84;42.92;93868.72;4976581;28;20042;-78
2023/04/29 06:38:52;;;;;;;15.07;8.25;;;;;;;9.69;42.65;93874.41;4974845;28;20026;-79
2023/04/29 06:41:18;;;;;;;16.45;9.32;;;;;;;9.78;42.55;93867.31;4976502;28;20030;-78
2023/04/29 06:43:43;;;;;;;16.10;9.90;;;;;;;9.31;43.53;93879.38;4977517;28;20137;-79
2023/04/29 06:46:09;;;;;;;12.00;8.98;;;;;;;9.63;42.49;93847.25;4975687;28;20038;-77
2023/04/29 06:48:35;;;;;;;14.80;9.90;;;;;;;9.63;42.98;93823.34;4973814;28;20042;-76
2023/04/29 06:51:00;;;;;;;14.48;9.73;;;;;;;10.23;43.26;93868.69;4978203;28;20695;-79
2023/04/29 06:53:26;;;;;;;12.20;8.75;;;;;;;10.31;42.68;93867.16;4974283;28;20047;-78
2023/04/29 06:55:51;;;;;;;15.18;9.45;;;;;;;10.22;43.28;93859.16;4978109;28;20027;-79
2023/04/29 06:58:18;;;;;;;15.30;9.27;;;;;;;10.51;42.41;93842.69;4976582;28;20032;-77
2023/04/29 07:00:48;;;;;;;13.07;9.75;;;;;;;9.83;43.56;93861.81;4973473;28;20035;-78
2023/04/29 07:03:14;;;;;;;17.42;10.00;;;;;;;10.13;42.92;93865.53;4991480;28;20133;-78
2023/04/29 07:05:40;;;;;;;12.25;9.32;;;;;;;9.98;43.40;93850.00;4976445;28;20038;-78
2023/04/29 07:08:07;;;;;;;16.80;8.82;;;;;;;9.96;44.00;93863.63;4977676;28;20049;-79
2023/04/29 07:10:33;;;;;;;15.10;8.07;;;;;;;9.72;42.47;93863.22;4977677;28;20061;-77
2023/04/29 07:12:59;;;;;;;10.48;7.32;;;;;;;10.00;41.81;93863.78;4976143;28;20046;-78
2023/04/29 07:15:26;;;;;;;10.45;8.35;;;;;;;9.86;42.13;93861.22;4969597;28;20045;-79
2023/04/29 07:17:51;;;;;;;9.13;7.13;;;;;;;10.13;40.12;93861.00;4991255;28;20448;-78
2023/04/29 07:20:17;;;;;;;8.93;7.13;;;;;;;10.61;38.94;93847.66;4972237;28;20139;-79
2023/04/29 07:22:42;;;;;;;12.55;7.65;;;;;;;10.61;39.09;93831.72;4974990;28;20033;-79
2023/04/29 07:25:09;;;;;;;8.20;7.28;;;;;;;10.89;39.45;93837.53;4978868;28;20027;-80
2023/04/29 07:27:35;;;;;;;10.52;7.40;;;;;;;11.14;39.04;93844.72;4980459;28;20042;-78
2023/04/29 07:30:03;;;;;;;12.23;7.55;;;;;;;11.25;38.42;93858.44;4981647;28;20037;-76
2023/04/29 07:32:32;;;;;;;12.95;8.82;;;;;;;11.04;39.95;93860.22;4973025;28;20053;-79
2023/04/29 07:34:58;;;;;;;14.82;8.75;;;;;;;10.88;39.82;93846.59;4977553;28;20053;-78
2023/04/29 07:37:24;;;;;;;14.75;9.25;;;;;;;10.92;40.52;93852.84;4976218;28;20010;-79
2023/04/29 07:39:49;;;;;;;14.07;9.07;;;;;;;11.17;38.88;93840.63;4968468;28;20061;-77
2023/04/29 07:42:15;;;;;;;12.77;8.45;;;;;;;11.27;38.92;93832.31;4975458;28;20050;-79
2023/04/29 07:44:40;;;;;;;15.23;8.70;;;;;;;11.56;39.59;93858.28;4976729;28;20069;-79
2023/04/29 07:47:06;;;;;;;11.60;8.88;;;;;;;11.14;38.88;93855.34;4965617;28;20140;-79
2023/04/29 07:49:31;;;;;;;12.90;9.30;;;;;;;11.59;37.76;93855.75;4977912;28;20869;-78
2023/04/29 07:51:57;;;;;;;19.05;9.65;;;;;;;11.52;37.80;93830.72;4973247;28;20424;-80
2023/04/29 07:54:22;;;;;;;13.90;9.95;;;;;;;11.69;38.04;93846.63;4975257;28;20261;-77
2023/04/29 07:56:48;;;;;;;10.55;8.82;;;;;;;11.72;38.31;93826.56;4975962;28;20221;-78
2023/04/29 07:59:14;;;;;;;15.73;10.32;;;;;;;11.38;39.33;93832.75;4977316;28;20049;-78
2023/04/29 08:01:40;;;;;;;25.70;10.02;;;;;;;11.53;38.83;93825.06;4974904;28;20049;-79
2023/04/29 08:04:06;;;;;;;12.10;9.45;;;;;;;11.39;39.51;93831.66;4976860;28;20417;-79
2023/04/29 08:06:32;;;;;;;10.35;8.82;;;;;;;11.56;37.54;93829.75;4978262;28;20085;-79
2023/04/29 08:08:57;;;;;;;10.85;8.00;;;;;;;10.99;38.91;93815.91;4969660;28;20564;-78
2023/04/29 08:11:24;;;;;;;18.52;8.00;;;;;;;11.00;40.21;93841.41;4990704;28;20031;-79
2023/04/29 08:13:49;;;;;;;12.00;9.15;;;;;;;11.45;39.06;93833.81;4972059;28;20508;-79
2023/04/29 08:16:15;;;;;;;11.30;9.70;;;;;;;11.57;39.70;93825.22;4974836;28;20042;-80
2023/04/29 08:18:41;;;;;;;19.35;10.68;;;;;;;11.98;38.33;93820.00;4975560;28;20048;-79
2023/04/29 08:21:08;;;;;;;12.77;9.60;;;;;;;11.61;39.63;93810.16;4976165;28;20146;-78
2023/04/29 08:23:34;;;;;;;18.05;10.35;;;;;;;11.94;38.39;93805.78;4973489;28;20518;-77
2023/04/29 08:26:00;;;;;;;17.17;9.70;;;;;;;11.90;38.53;93807.53;4975160;28;20030;-79
2023/04/29 08:28:26;;;;;;;16.02;10.38;;;;;;;11.54;39.07;93829.28;4980124;28;20026;-80
2023/04/29 08:30:52;;;;;;;15.52;10.75;;;;;;;11.65;39.15;93816.41;4980328;28;20061;-78
2023/04/29 08:33:17;;;;;;;17.95;10.13;;;;;;;12.10;38.50;93810.56;4980081;28;20065;-78
2023/04/29 08:35:43;;;;;;;15.82;10.65;;;;;;;12.55;38.67;93814.22;4974158;28;20034;-77
2023/04/29 08:38:09;;;;;;;13.02;8.23;;;;;;;11.94;37.32;93832.44;4978412;28;20116;-78
2023/04/29 08:40:45;;;;;;;16.88;10.02;;;;;;;11.33;37.92;93803.63;4975744;28;20760;-78
2023/04/29 08:43:14;;;;;;;11.02;8.35;;;;;;;11.63;37.96;93826.63;4972556;28;20212;-79
2023/04/29 08:45:41;;;;;;;11.75;7.38;;;;;;;11.77;36.85;93824.53;4970397;28;20440;-78
2023/04/29 08:48:07;;;;;;;10.80;6.68;;;;;;;11.40;36.67;93814.56;4973164;28;20496;-76
2023/04/29 08:50:40;;;;;;;10.93;6.53;;;;;;;12.19;36.46;93803.28;4971190;28;20042;-77
2023/04/29 08:53:11;;;;;;;11.35;7.15;;;;;;;12.04;36.74;93792.09;4974460;28;20030;-75
2023/04/29 08:55:42;;;;;;;12.32;7.07;;;;;;;11.75;38.38;93804.59;4973126;28;20032;-77
2023/04/29 08:58:08;;;;;;;9.75;6.22;;;;;;;12.14;37.42;93801.59;4961401;28;20309;-78
2023/04/29 09:00:35;;;;;;;11.13;6.03;;;;;;;11.42;36.27;93796.41;4955687;28;20054;-77
2023/04/29 09:03:10;;;;;;;9.43;5.97;;;;;;;11.52;36.73;93791.53;4954604;28;20148;-78
2023/04/29 09:05:36;;;;;;;8.38;5.93;;;;;;;11.81;35.92;93798.78;4944444;28;20039;-77
2023/04/29 09:08:03;;;;;;;17.55;7.32;;;;;;;12.45;35.75;93798.59;4954292;28;20039;-78
2023/04/29 09:10:29;;;;;;;14.23;6.75;;;;;;;12.56;36.71;93790.97;4951254;28;20027;-79
2023/04/29 09:12:57;;;;;;;6.95;5.78;;;;;;;12.61;36.75;93786.25;4951153;28;20069;-78
2023/04/29 09:15:23;;;;;;;27.02;7.05;;;;;;;12.34;36.08;93805.41;4953422;28;20081;-78
2023/04/29 09:17:48;;;;;;;14.85;7.05;;;;;;;12.34;36.06;93794.72;4952144;28;20569;-76
2023/04/29 09:20:20;;;;;;;11.27;6.22;;;;;;;12.56;36.62;93796.31;4973441;28;20035;-79
2023/04/29 09:22:50;;;;;;;11.07;6.35;;;;;;;12.40;36.24;93796.88;4971540;28;20038;-79
2023/04/29 09:25:15;;;;;;;10.43;7.13;;;;;;;12.83;35.66;93790.47;4971257;28;20026;-77
2023/04/29 09:27:41;;;;;;;9.15;6.15;;;;;;;13.18;35.48;93785.59;4969013;28;20403;-76
2023/04/29 09:30:08;;;;;;;10.27;6.05;;;;;;;13.27;35.25;93772.94;4965423;28;20049;-80
2023/04/29 09:32:35;;;;;;;9.98;6.60;;;;;;;13.37;35.25;93783.19;4973342;28;20129;-78
2023/04/29 09:35:23;;;;;;;11.48;7.65;;;;;;;13.66;34.59;93776.94;4981891;28;20030;-78
2023/04/29 09:37:50;;;;;;;8.80;7.30;;;;;;;13.28;34.39;93782.50;4981641;28;20069;-76
2023/04/29 09:40:33;;;;;;;10.43;6.45;;;;;;;13.37;34.69;93767.16;4977865;28;20105;-77
2023/04/29 09:42:59;;;;;;;12.85;7.20;;;;;;;13.17;35.91;93768.78;4967263;28;20088;-78
2023/04/29 09:45:51;;;;;;;14.65;7.07;;;;;;;13.67;34.32;93768.59;4976496;28;20042;-77
2023/04/29 09:48:17;;;;;;;12.65;7.13;;;;;;;13.39;33.86;93743.59;4970847;28;20149;-78
2023/04/29 09:50:45;;;;;;;14.18;8.18;;;;;;;13.44;33.79;93738.03;4972536;28;20050;-79
2023/04/29 09:53:27;;;;;;;9.65;7.93;;;;;;;13.60;33.68;93754.97;4972380;28;20331;-79
2023/04/29 09:55:57;;;;;;;11.60;9.05;;;;;;;14.20;33.11;93753.41;4987216;28;20025;-80
2023/04/29 09:58:37;;;;;;;19.65;9.43;;;;;;;14.01;33.65;93753.22;4968314;28;20060;-79
2023/04/29 10:01:04;;;;;;;11.40;7.90;;;;;;;14.04;32.49;93721.22;4970910;28;20047;-80
2023/04/29 10:03:32;;;;;;;11.00;7.82;;;;;;;14.16;33.32;93734.59;4985901;28;20316;-77
2023/04/29 10:05:59;;;;;;;14.82;9.55;;;;;;;14.36;33.53;93732.09;4972344;28;20058;-77
2023/04/29 10:08:26;;;;;;;14.85;10.38;;;;;;;14.52;32.60;93736.38;4971888;28;20074;-79
2023/04/29 10:10:56;;;;;;;13.55;9.63;;;;;;;14.39;32.80;93720.72;4969458;28;20026;-79
2023/04/29 10:13:25;;;;;;;16.77;8.65;;;;;;;14.68;34.16;93733.03;4969283;28;20042;-77
2023/04/29 10:16:08;;;;;;;19.05;10.88;;;;;;;14.83;33.08;93727.72;4971175;28;20077;-80
2023/04/29 10:18:39;;;;;;;14.70;9.93;;;;;;;15.11;33.56;93724.28;4962368;28;20150;-79
2023/04/29 10:21:08;;;;;;;13.38;9.23;;;;;;;14.64;32.27;93722.22;4969519;28;20039;-79
2023/04/29 10:23:35;;;;;;;15.85;8.82;;;;;;;14.30;33.24;93728.09;4980976;28;20060;-78
2023/04/29 10:26:02;;;;;;;9.90;7.90;;;;;;;14.62;33.10;93719.09;4969969;28;20026;-79
2023/04/29 10:28:31;;;;;;;13.75;9.07;;;;;;;14.73;33.58;93719.41;4971568;28;20029;-79
2023/04/29 10:31:00;;;;;;;14.85;8.27;;;;;;;15.01;32.84;93730.88;4964332;28;20145;-78
2023/04/29 10:33:26;;;;;;;13.30;7.80;;;;;;;15.05;32.87;93715.69;4971017;28;20027;-79
2023/04/29 10:35:54;;;;;;;10.63;7.13;;;;;;;15.20;32.06;93720.31;4969998;28;20376;-79
2023/04/29 10:38:29;;;;;;;13.38;7.30;;;;;;;15.06;31.90;93701.16;4971876;28;20034;-76
2023/04/29 10:40:57;;;;;;;10.40;6.30;;;;;;;15.01;31.78;93709.44;4979735;28;20034;-77
2023/04/29 10:43:26;;;;;;;10.55;6.43;;;;;;;14.97;32.30;93717.41;4989753;28;20150;-78
2023/04/29 10:46:17;;;;;;;10.50;6.85;;;;;;;15.09;31.90;93716.56;4971191;28;20073;-79
2023/04/29 10:48:43;;;;;;;10.00;7.07;;;;;;;14.77;31.44;93721.06;4970735;28;20042;-79
2023/04/29 10:51:09;;;;;;;11.80;7.13;;;;;;;14.85;31.52;93700.63;4976971;28;20034;-77
2023/04/29 10:53:35;;;;;;;17.02;7.47;;;;;;;15.00;31.67;93718.63;4973834;28;20076;-77
2023/04/29 10:56:07;;;;;;;9.57;7.05;;;;;;;15.18;31.69;93717.19;4977938;28;20224;-79
2023/04/29 10:58:43;;;;;;;9.98;6.03;;;;;;;15.31;31.18;93715.97;4971082;28;20022;-79
2023/04/29 11:01:16;;;;;;;6.97;5.68;;;;;;;15.28;31.62;93694.47;4974024;28;20551;-80
2023/04/29 11:03:58;;;;;;;17.65;5.75;;;;;;;15.44;32.38;93704.09;4974144;28;20045;-79
2023/04/29 11:06:36;;;;;;;12.77;6.10;;;;;;;15.45;31.94;93708.31;4969588;28;20042;-77
2023/04/29 11:09:02;;;;;;;11.65;6.20;;;;;;;15.65;31.83;93711.09;4967890;28;20041;-78
2023/04/29 11:11:45;;;;;;;8.27;5.45;;;;;;;15.68;30.93;93705.03;4975285;28;20034;-78
2023/04/29 11:14:12;;;;;;;11.40;5.43;;;;;;;15.62;29.98;93676.94;4971570;28;20046;-78
2023/04/29 11:16:50;;;;;;;7.15;4.18;;;;;;;15.74;30.16;93682.97;4978340;28;20033;-79
2023/04/29 11:19:16;;;;;;;6.47;4.07;;;;;;;15.88;30.62;93707.44;4973669;28;20045;-80
2023/04/29 11:21:44;;;;;;;9.40;4.57;;;;;;;15.86;31.22;93680.19;4973300;28;20420;-79
2023/04/29 11:24:11;;;;;;;4.97;3.53;;;;;;;16.05;30.15;93702.81;4971407;28;20034;-80
2023/04/29 11:26:36;;;;;;;6.97;3.60;;;;;;;16.18;29.45;93690.84;4964643;28;20038;-79
2023/04/29 11:29:04;;;;;;;7.53;4.30;;;;;;;16.07;29.72;93679.91;4967174;28;20181;-79
2023/04/29 11:31:31;;;;;;;6.53;3.20;;;;;;;16.26;28.75;93697.94;4969416;28;20488;-79